Indiana Highway — JMVS — position and weather

sailwx.info

Track history (hours):
 
Tides and Currents Weather Stations Pressure Air Temp Water Temp Dewpoint Dewpoint Depression Visibility Wind Speed Wind Dir Waves Ship Positions

Indiana Highway

Last reported at 2017-Dec-25 11:28 UTC. Time now 2018-Jan-19 01:28 UTC.
Position N 34°19' E 137°21'.
Warning: this ship's position is 24 days out of date.

Length 199.9 m; beam 32.2 m.

Type: Cargo ship. MMSI: 432433000.

Date/timePositionNaut miles runAvg speedWind from/ knotsBaromVisibWave heightAir tempDewpointWater temp
2017-Dec-25 11:28N 34°19' E 137°21'1216.5
2017-Dec-25 10:43N 34°27' E 137°10'416.4
2017-Dec-25 10:30N 34°29' E 137°06'510.6
2017-Dec-25 10:00N 34°33' E 137°01'6 7.8
2017-Dec-25 09:13N 34°39' E 137°01'314.5
2017-Dec-25 09:00N 34°40' E 137°04'813.3
2017-Dec-25 08:26N 34°43' E 137°12'  
2017-Dec-21 06:36N 34°43' E 137°18'1 1.5
2017-Dec-21 06:11N 34°44' E 137°18'1 7.6
2017-Dec-21 05:59N 34°44' E 137°16'511.0
2017-Dec-21 05:31N 34°42' E 137°10'611.6
2017-Dec-21 05:00N 34°40' E 137°03'611.5
2017-Dec-21 04:30N 34°36' E 136°59'610.9
2017-Dec-21 04:00N 34°32' E 137°03'6 8.2
2017-Dec-21 03:14N 34°29' E 137°10'4 2.9
2017-Dec-21 01:54N 34°29' E 137°15'2 4.4
2017-Dec-21 01:30N 34°27' E 137°14'915.4
2017-Dec-21 00:54N 34°27' E 137°25'1115.3
2017-Dec-21 00:10N 34°26' E 137°39'613.8
2017-Dec-20 23:44N 34°24' E 137°46'415.0
2017-Dec-20 23:30N 34°25' E 137°50'916.1
2017-Dec-20 22:58N 34°27' E 138°00'816.9
2017-Dec-20 22:29N 34°30' E 138°09'816.7
2017-Dec-20 22:00N 34°29' E 138°19'917.7
2017-Dec-20 21:30N 34°28' E 138°30'918.7
2017-Dec-20 21:00N 34°29' E 138°41'1018.4
2017-Dec-20 20:29N 34°29' E 138°52'918.1
2017-Dec-20 20:00N 34°31' E 139°02'1019.1
2017-Dec-20 19:30N 34°36' E 139°12'918.1
2017-Dec-20 19:00N 34°37' E 139°23'917.7
2017-Dec-20 18:30N 34°38' E 139°34'918.2
2017-Dec-20 18:00N 34°38' E 139°45'918.4
2017-Dec-20 17:30N 34°39' E 139°56'1116.7
2017-Dec-20 16:49N 34°43' E 140°09'619.0
2017-Dec-20 16:30N 34°46' E 140°15'1018.6
2017-Dec-20 15:58N 34°53' E 140°24'918.3
2017-Dec-20 15:27N 34°59' E 140°33'  
Track history (hours):
 
Tides and Currents Weather Stations Pressure Air Temp Water Temp Dewpoint Dewpoint Depression Visibility Wind Speed Wind Dir Waves Ship Positions

Indiana Highway

Last reported at 2017-Dec-25 11:28 UTC. Time now 2018-Jan-19 01:28 UTC.
Position N 34°19' E 137°21'.
Warning: this ship's position is 24 days out of date.

Length 199.9 m; beam 32.2 m.

Type: Cargo ship. MMSI: 432433000.

Date/timePositionNaut miles runAvg speedWind from/ knotsBaromVisibWave heightAir tempDewpointWater temp
2017-Dec-25 11:28N 34°19' E 137°21'1216.5
2017-Dec-25 10:43N 34°27' E 137°10'416.4
2017-Dec-25 10:30N 34°29' E 137°06'510.6
2017-Dec-25 10:00N 34°33' E 137°01'6 7.8
2017-Dec-25 09:13N 34°39' E 137°01'314.5
2017-Dec-25 09:00N 34°40' E 137°04'813.3
2017-Dec-25 08:26N 34°43' E 137°12'  
2017-Dec-21 06:36N 34°43' E 137°18'1 1.5
2017-Dec-21 06:11N 34°44' E 137°18'1 7.6
2017-Dec-21 05:59N 34°44' E 137°16'511.0
2017-Dec-21 05:31N 34°42' E 137°10'611.6
2017-Dec-21 05:00N 34°40' E 137°03'611.5
2017-Dec-21 04:30N 34°36' E 136°59'610.9
2017-Dec-21 04:00N 34°32' E 137°03'6 8.2
2017-Dec-21 03:14N 34°29' E 137°10'4 2.9
2017-Dec-21 01:54N 34°29' E 137°15'2 4.4
2017-Dec-21 01:30N 34°27' E 137°14'915.4
2017-Dec-21 00:54N 34°27' E 137°25'1115.3
2017-Dec-21 00:10N 34°26' E 137°39'613.8
2017-Dec-20 23:44N 34°24' E 137°46'415.0
2017-Dec-20 23:30N 34°25' E 137°50'916.1
2017-Dec-20 22:58N 34°27' E 138°00'816.9
2017-Dec-20 22:29N 34°30' E 138°09'816.7
2017-Dec-20 22:00N 34°29' E 138°19'917.7
2017-Dec-20 21:30N 34°28' E 138°30'918.7
2017-Dec-20 21:00N 34°29' E 138°41'1018.4
2017-Dec-20 20:29N 34°29' E 138°52'918.1
2017-Dec-20 20:00N 34°31' E 139°02'1019.1
2017-Dec-20 19:30N 34°36' E 139°12'918.1
2017-Dec-20 19:00N 34°37' E 139°23'917.7
2017-Dec-20 18:30N 34°38' E 139°34'918.2
2017-Dec-20 18:00N 34°38' E 139°45'918.4
2017-Dec-20 17:30N 34°39' E 139°56'1116.7
2017-Dec-20 16:49N 34°43' E 140°09'619.0
2017-Dec-20 16:30N 34°46' E 140°15'1018.6
2017-Dec-20 15:58N 34°53' E 140°24'918.3
2017-Dec-20 15:27N 34°59' E 140°33'  

Dump ship's entire track history